createdAt,value
2023-02-06T00:00:53.603Z,1.00
2023-02-06T00:03:20.784Z,0.90
2023-02-06T00:05:59.152Z,0.90
2023-02-06T00:08:27.899Z,0.90
2023-02-06T00:10:55.297Z,0.90
2023-02-06T00:13:22.489Z,0.80
2023-02-06T00:15:49.800Z,0.80
2023-02-06T00:18:17.031Z,0.80
2023-02-06T00:20:44.084Z,0.80
2023-02-06T00:23:11.527Z,0.70
2023-02-06T00:25:38.453Z,0.70
2023-02-06T00:28:06.288Z,0.70
2023-02-06T00:30:33.622Z,0.70
2023-02-06T00:33:00.490Z,0.70
2023-02-06T00:35:27.499Z,0.70
2023-02-06T00:37:54.750Z,0.60
2023-02-06T00:40:21.899Z,0.60
2023-02-06T00:42:48.823Z,0.60
2023-02-06T00:45:15.837Z,0.50
2023-02-06T00:47:42.774Z,0.50
2023-02-06T00:50:10.055Z,0.50
2023-02-06T00:52:37.312Z,0.50
2023-02-06T00:55:05.237Z,0.50
2023-02-06T00:57:32.196Z,0.40
2023-02-06T00:59:59.109Z,0.40
2023-02-06T01:02:26.453Z,0.40
2023-02-06T01:04:53.392Z,0.40
2023-02-06T01:07:20.295Z,0.40
2023-02-06T01:09:47.218Z,0.30
2023-02-06T01:12:14.157Z,0.30
2023-02-06T01:14:41.357Z,0.30
2023-02-06T01:17:08.513Z,0.20
2023-02-06T01:19:36.913Z,0.30
2023-02-06T01:22:04.160Z,0.20
2023-02-06T01:24:31.273Z,0.20
2023-02-06T01:26:58.529Z,0.30
2023-02-06T01:29:25.779Z,0.20
2023-02-06T01:31:52.655Z,0.20
2023-02-06T01:34:19.957Z,0.20
2023-02-06T01:36:47.133Z,0.20
2023-02-06T01:39:13.959Z,0.20
2023-02-06T01:41:41.148Z,0.10
2023-02-06T01:44:24.954Z,0.20
2023-02-06T01:46:55.020Z,0.20
2023-02-06T01:49:24.996Z,0.10
2023-02-06T01:52:13.356Z,0.10
2023-02-06T01:54:41.382Z,0.10
2023-02-06T01:57:11.892Z,0.10
2023-02-06T01:59:42.526Z,0.00
2023-02-06T02:02:09.675Z,0.00
2023-02-06T02:04:37.256Z,0.00
2023-02-06T02:07:12.132Z,0.00
2023-02-06T02:09:39.530Z,0.00
2023-02-06T02:12:06.869Z,-0.10
2023-02-06T02:14:34.789Z,-0.10
2023-02-06T02:17:04.400Z,-0.10
2023-02-06T02:19:46.432Z,-0.10
2023-02-06T02:22:44.525Z,-0.10
2023-02-06T02:25:30.304Z,-0.10
2023-02-06T02:28:06.596Z,-0.10
2023-02-06T02:30:42.492Z,-0.10
2023-02-06T02:33:24.224Z,-0.20
2023-02-06T02:36:03.317Z,-0.20
2023-02-06T02:39:00.913Z,-0.20
2023-02-06T02:41:54.298Z,-0.30
2023-02-06T02:44:39.074Z,-0.30
2023-02-06T02:47:11.726Z,-0.30
2023-02-06T02:49:41.610Z,-0.30
2023-02-06T02:52:09.421Z,-0.30
2023-02-06T02:54:36.451Z,-0.30
2023-02-06T02:57:11.595Z,-0.40
2023-02-06T02:59:44.811Z,-0.40
2023-02-06T03:02:18.845Z,-0.40
2023-02-06T03:04:54.393Z,-0.40
2023-02-06T03:07:53.272Z,-0.40
2023-02-06T03:10:34.889Z,-0.40
2023-02-06T03:13:23.060Z,-0.50
2023-02-06T03:15:50.451Z,-0.50
2023-02-06T03:18:23.830Z,-0.50
2023-02-06T03:20:52.298Z,-0.50
2023-02-06T03:23:29.628Z,-0.50
2023-02-06T03:26:00.401Z,-0.40
2023-02-06T03:28:33.751Z,-0.40
2023-02-06T03:31:05.038Z,-0.40
2023-02-06T03:33:39.044Z,-0.40
2023-02-06T03:36:08.876Z,-0.40
2023-02-06T03:38:35.775Z,-0.40
2023-02-06T03:41:05.111Z,-0.40
2023-02-06T03:43:32.470Z,-0.50
2023-02-06T03:46:02.902Z,-0.40
2023-02-06T03:48:52.173Z,-0.40
2023-02-06T03:51:26.188Z,-0.40
2023-02-06T03:53:56.239Z,-0.40
2023-02-06T03:56:32.994Z,-0.40
2023-02-06T03:59:00.412Z,-0.30
2023-02-06T04:01:27.848Z,-0.20
2023-02-06T04:03:54.953Z,-0.20
2023-02-06T04:06:22.188Z,-0.20
2023-02-06T04:08:49.130Z,-0.10
2023-02-06T04:11:16.598Z,-0.10
2023-02-06T04:13:43.556Z,-0.10
2023-02-06T04:16:10.556Z,-0.10
2023-02-06T04:18:37.884Z,0.00
2023-02-06T04:21:06.518Z,0.00
2023-02-06T04:23:34.640Z,0.00
2023-02-06T04:26:01.748Z,0.00
2023-02-06T04:28:29.020Z,0.00
2023-02-06T04:30:56.039Z,0.00
2023-02-06T04:33:23.342Z,0.00
2023-02-06T04:35:50.384Z,0.10
2023-02-06T04:38:17.500Z,0.10
2023-02-06T04:40:44.730Z,0.10
2023-02-06T04:43:12.102Z,0.10
2023-02-06T04:45:39.204Z,0.20
2023-02-06T04:48:06.771Z,0.20
2023-02-06T04:50:34.357Z,0.20
2023-02-06T04:53:01.585Z,0.20
2023-02-06T04:55:28.910Z,0.20
2023-02-06T04:57:55.846Z,0.20
2023-02-06T05:00:22.904Z,0.20
2023-02-06T05:02:49.891Z,0.20
2023-02-06T05:05:16.975Z,0.20
2023-02-06T05:07:43.893Z,0.30
2023-02-06T05:10:11.438Z,0.30
2023-02-06T05:12:38.436Z,0.40
2023-02-06T05:15:06.329Z,0.40
2023-02-06T05:17:33.243Z,0.50
2023-02-06T05:20:00.564Z,0.50
2023-02-06T05:22:27.492Z,0.50
2023-02-06T05:24:54.403Z,0.50
2023-02-06T05:27:21.479Z,0.50
2023-02-06T05:29:48.440Z,0.50
2023-02-06T05:32:15.325Z,0.40
2023-02-06T05:34:42.558Z,0.40
2023-02-06T05:37:09.701Z,0.40
2023-02-06T05:39:36.569Z,0.50
2023-02-06T05:42:03.888Z,0.50
2023-02-06T05:44:32.716Z,0.40
2023-02-06T05:46:59.642Z,0.50
2023-02-06T05:49:27.879Z,0.40
2023-02-06T05:51:55.132Z,0.50
2023-02-06T05:54:22.356Z,0.50
2023-02-06T05:56:49.250Z,0.50
2023-02-06T05:59:16.190Z,0.50
2023-02-06T06:01:43.145Z,0.50
2023-02-06T06:04:10.578Z,0.60
2023-02-06T06:06:37.517Z,0.60
2023-02-06T06:09:04.698Z,0.60
2023-02-06T06:11:33.612Z,0.60
2023-02-06T06:14:01.141Z,0.60
2023-02-06T06:16:27.994Z,0.60
2023-02-06T06:18:55.900Z,0.60
2023-02-06T06:21:23.608Z,0.60
2023-02-06T06:23:50.850Z,0.50
2023-02-06T06:26:17.803Z,0.60
2023-02-06T06:28:45.547Z,0.70
2023-02-06T06:31:13.221Z,0.70
2023-02-06T06:33:41.222Z,0.70
2023-02-06T06:36:09.553Z,0.70
2023-02-06T06:38:36.805Z,0.70
2023-02-06T06:41:04.407Z,0.70
2023-02-06T06:43:32.923Z,0.70
2023-02-06T06:46:01.306Z,0.70
2023-02-06T06:48:29.125Z,0.70
2023-02-06T06:50:56.051Z,0.70
2023-02-06T06:53:23.898Z,0.70
2023-02-06T06:55:50.933Z,0.70
2023-02-06T06:58:17.924Z,0.70
2023-02-06T07:00:45.857Z,0.70
2023-02-06T07:03:12.848Z,0.70
2023-02-06T07:05:41.829Z,0.70
2023-02-06T07:08:08.763Z,0.70
2023-02-06T07:10:35.706Z,0.80
2023-02-06T07:13:02.944Z,0.70
2023-02-06T07:15:29.925Z,0.70
2023-02-06T07:17:56.817Z,0.70
2023-02-06T07:20:24.099Z,0.70
2023-02-06T07:22:51.299Z,0.80
2023-02-06T07:25:20.307Z,0.80
2023-02-06T07:27:47.889Z,0.80
2023-02-06T07:30:15.435Z,0.90
2023-02-06T07:32:42.405Z,0.90
2023-02-06T07:35:09.288Z,0.90
2023-02-06T07:37:36.908Z,0.90
2023-02-06T07:40:05.565Z,1.00
2023-02-06T07:42:33.731Z,1.00
2023-02-06T07:45:01.235Z,1.00
2023-02-06T07:47:28.175Z,1.00
2023-02-06T07:49:55.120Z,1.10
2023-02-06T07:52:22.437Z,1.00
2023-02-06T07:54:49.348Z,1.10
2023-02-06T07:57:16.330Z,1.00
2023-02-06T07:59:43.338Z,1.00
2023-02-06T08:02:12.223Z,1.00
2023-02-06T08:04:39.933Z,1.00
2023-02-06T08:07:10.371Z,1.10
2023-02-06T08:09:37.476Z,1.00
2023-02-06T08:12:04.456Z,1.10
2023-02-06T08:14:31.639Z,1.10
2023-02-06T08:16:58.561Z,1.10
2023-02-06T08:19:25.879Z,1.20
2023-02-06T08:21:52.953Z,1.20
2023-02-06T08:24:20.256Z,1.30
2023-02-06T08:26:50.148Z,1.30
2023-02-06T08:29:17.699Z,1.40
2023-02-06T08:31:44.672Z,1.40
2023-02-06T08:34:14.417Z,1.40
2023-02-06T08:36:43.455Z,1.50
2023-02-06T08:39:14.257Z,1.50
2023-02-06T08:41:43.058Z,1.60
2023-02-06T08:44:17.129Z,1.60
2023-02-06T08:46:46.076Z,1.70
2023-02-06T08:49:21.237Z,1.70
2023-02-06T08:51:51.903Z,1.90
2023-02-06T08:54:21.578Z,1.90
2023-02-06T08:56:49.632Z,1.80
2023-02-06T08:59:18.662Z,1.90
2023-02-06T09:01:46.321Z,2.00
2023-02-06T09:04:14.523Z,2.00
2023-02-06T09:06:43.973Z,2.10
2023-02-06T09:09:12.596Z,2.00
2023-02-06T09:11:40.310Z,2.10
2023-02-06T09:14:11.591Z,2.10
2023-02-06T09:16:39.419Z,2.10
2023-02-06T09:19:06.659Z,2.30
2023-02-06T09:21:35.893Z,2.40
2023-02-06T09:24:06.297Z,2.50
2023-02-06T09:26:53.538Z,2.60
2023-02-06T09:29:24.570Z,2.80
2023-02-06T09:31:51.517Z,2.90
2023-02-06T09:34:18.424Z,3.10
2023-02-06T09:36:45.872Z,3.40
2023-02-06T09:39:12.874Z,3.60
2023-02-06T09:41:53.229Z,3.70
2023-02-06T09:44:38.644Z,3.70
2023-02-06T09:47:22.574Z,3.60
2023-02-06T09:49:51.762Z,3.70
2023-02-06T09:52:33.621Z,3.80
2023-02-06T09:55:33.418Z,3.90
2023-02-06T09:58:38.114Z,4.10
2023-02-06T10:01:27.138Z,4.20
2023-02-06T10:04:18.935Z,4.40
2023-02-06T10:06:49.751Z,4.50
2023-02-06T10:09:22.410Z,4.60
2023-02-06T10:12:18.886Z,4.70
2023-02-06T10:14:53.106Z,4.70
2023-02-06T10:17:44.240Z,4.70
2023-02-06T10:20:18.218Z,4.70
2023-02-06T10:23:13.877Z,4.90
2023-02-06T10:25:49.862Z,5.00
2023-02-06T10:28:27.080Z,5.00
2023-02-06T10:31:09.224Z,5.20
2023-02-06T10:34:01.720Z,5.30
2023-02-06T10:36:31.600Z,5.40
2023-02-06T10:39:25.143Z,5.60
2023-02-06T10:42:21.179Z,5.50
2023-02-06T10:45:19.608Z,5.60
2023-02-06T10:47:57.104Z,5.60
2023-02-06T10:50:45.091Z,5.70
2023-02-06T10:53:35.634Z,5.80
2023-02-06T10:56:16.587Z,5.70
2023-02-06T10:58:51.555Z,5.70
2023-02-06T11:01:26.163Z,5.80
2023-02-06T11:04:02.913Z,5.90
2023-02-06T11:06:30.523Z,6.00
2023-02-06T11:08:57.706Z,6.10
2023-02-06T11:11:30.875Z,6.30
2023-02-06T11:14:06.076Z,6.40
2023-02-06T11:16:36.974Z,6.50
2023-02-06T11:19:19.010Z,6.50
2023-02-06T11:21:50.982Z,6.60
2023-02-06T11:24:22.460Z,6.60
2023-02-06T11:26:54.630Z,6.70
2023-02-06T11:29:23.535Z,6.80
2023-02-06T11:32:02.013Z,6.80
2023-02-06T11:34:54.461Z,6.90
2023-02-06T11:37:39.775Z,7.10
2023-02-06T11:40:18.349Z,7.10
2023-02-06T11:42:48.087Z,7.20
2023-02-06T11:45:32.664Z,7.10
2023-02-06T11:48:00.508Z,7.10
2023-02-06T11:50:36.658Z,7.00
2023-02-06T11:53:18.783Z,7.00
2023-02-06T11:55:58.012Z,7.00
2023-02-06T11:58:30.198Z,6.90
2023-02-06T12:01:22.109Z,6.80
2023-02-06T12:03:52.049Z,6.80
2023-02-06T12:06:30.272Z,6.80
2023-02-06T12:09:00.319Z,6.90
2023-02-06T12:11:39.851Z,6.80
2023-02-06T12:14:13.608Z,6.80
2023-02-06T12:16:44.948Z,6.80
2023-02-06T12:19:20.527Z,6.70
2023-02-06T12:21:55.204Z,6.70
2023-02-06T12:24:25.885Z,6.70
2023-02-06T12:26:55.680Z,6.70
2023-02-06T12:29:34.909Z,6.80
2023-02-06T12:32:35.045Z,6.80
2023-02-06T12:35:32.406Z,6.80
2023-02-06T12:38:12.057Z,6.90
2023-02-06T12:41:39.998Z,7.10
2023-02-06T12:44:16.097Z,7.20
2023-02-06T12:46:45.771Z,7.30
2023-02-06T12:49:25.648Z,7.40
2023-02-06T12:52:14.617Z,7.40
2023-02-06T12:54:50.626Z,7.50
2023-02-06T12:57:25.554Z,7.50
2023-02-06T13:00:32.224Z,7.50
2023-02-06T13:03:16.163Z,7.50
2023-02-06T13:05:47.421Z,7.60
2023-02-06T13:08:26.568Z,7.60
2023-02-06T13:11:12.112Z,7.60
2023-02-06T13:13:41.871Z,7.60
2023-02-06T13:16:10.200Z,7.60
2023-02-06T13:18:51.405Z,7.60
2023-02-06T13:21:32.490Z,7.60
2023-02-06T13:24:02.445Z,7.60
2023-02-06T13:26:56.620Z,7.70
2023-02-06T13:29:28.596Z,7.80
2023-02-06T13:32:10.898Z,7.90
2023-02-06T13:34:46.711Z,7.90
2023-02-06T13:37:20.889Z,8.00
2023-02-06T13:39:48.857Z,7.90
2023-02-06T13:42:37.900Z,8.00
2023-02-06T13:45:06.204Z,7.90
2023-02-06T13:48:03.916Z,7.90
2023-02-06T13:50:47.712Z,7.90
2023-02-06T13:53:35.486Z,7.90
2023-02-06T13:56:32.456Z,7.80
2023-02-06T13:59:06.339Z,7.60
2023-02-06T14:01:33.799Z,7.70
2023-02-06T14:04:01.280Z,7.60
2023-02-06T14:06:43.808Z,7.50
2023-02-06T14:09:19.525Z,7.50
2023-02-06T14:12:28.081Z,7.60
2023-02-06T14:15:09.842Z,7.50
2023-02-06T14:17:57.057Z,7.50
2023-02-06T14:20:34.525Z,7.70
2023-02-06T14:23:27.103Z,7.70
2023-02-06T14:26:11.071Z,7.60
2023-02-06T14:28:49.576Z,7.60
2023-02-06T14:32:03.574Z,7.50
2023-02-06T14:34:38.158Z,7.60
2023-02-06T14:37:28.493Z,7.60
2023-02-06T14:39:57.426Z,7.60
2023-02-06T14:42:39.125Z,7.60
2023-02-06T14:45:20.791Z,7.60
2023-02-06T14:47:47.967Z,7.50
2023-02-06T14:50:27.363Z,7.50
2023-02-06T14:53:19.575Z,7.50
2023-02-06T14:55:47.341Z,7.40
2023-02-06T14:58:32.546Z,7.30
2023-02-06T15:01:17.665Z,7.30
2023-02-06T15:03:50.133Z,7.20
2023-02-06T15:06:32.085Z,7.30
2023-02-06T15:08:59.045Z,7.20
2023-02-06T15:11:37.251Z,7.20
2023-02-06T15:14:06.427Z,7.20
2023-02-06T15:16:49.414Z,7.10
2023-02-06T15:19:26.675Z,7.10
2023-02-06T15:22:11.782Z,7.10
2023-02-06T15:24:57.529Z,7.10
2023-02-06T15:27:30.314Z,7.20
2023-02-06T15:29:58.404Z,7.30
2023-02-06T15:32:31.857Z,7.20
2023-02-06T15:35:00.671Z,7.30
2023-02-06T15:37:29.166Z,7.30
2023-02-06T15:40:03.837Z,7.30
2023-02-06T15:42:30.911Z,7.40
2023-02-06T15:44:58.085Z,7.40
2023-02-06T15:47:24.998Z,7.40
2023-02-06T15:49:53.532Z,7.40
2023-02-06T15:52:35.419Z,7.40
2023-02-06T15:55:03.196Z,7.40
2023-02-06T15:57:41.996Z,7.30
2023-02-06T16:00:23.636Z,7.30
2023-02-06T16:02:51.779Z,7.30
2023-02-06T16:05:33.310Z,7.30
2023-02-06T16:08:02.910Z,7.20
2023-02-06T16:10:35.514Z,7.10
2023-02-06T16:13:09.351Z,7.10
2023-02-06T16:15:38.752Z,7.10
2023-02-06T16:18:23.904Z,6.90
2023-02-06T16:20:51.668Z,6.80
2023-02-06T16:23:26.646Z,6.70
2023-02-06T16:26:07.382Z,6.60
2023-02-06T16:28:42.007Z,6.50
2023-02-06T16:31:14.449Z,6.40
2023-02-06T16:33:44.255Z,6.30
2023-02-06T16:36:16.875Z,6.20
2023-02-06T16:38:54.003Z,6.00
2023-02-06T16:41:33.429Z,5.90
2023-02-06T16:44:01.854Z,5.80
2023-02-06T16:46:29.323Z,5.70
2023-02-06T16:48:58.071Z,5.60
2023-02-06T16:51:27.956Z,5.50
2023-02-06T16:53:55.356Z,5.40
2023-02-06T16:56:22.909Z,5.30
2023-02-06T16:58:49.984Z,5.20
2023-02-06T17:01:25.507Z,5.10
2023-02-06T17:03:54.224Z,5.00
2023-02-06T17:06:29.223Z,4.90
2023-02-06T17:09:01.960Z,4.80
2023-02-06T17:11:29.960Z,4.70
2023-02-06T17:13:56.667Z,4.60
2023-02-06T17:16:25.374Z,4.50
2023-02-06T17:18:54.403Z,4.40
2023-02-06T17:21:23.105Z,4.30
2023-02-06T17:23:51.374Z,4.20
2023-02-06T17:26:20.988Z,4.10
2023-02-06T17:28:49.246Z,4.10
2023-02-06T17:31:16.405Z,4.10
2023-02-06T17:33:43.145Z,4.00
2023-02-06T17:36:29.556Z,4.00
2023-02-06T17:39:00.030Z,3.90
2023-02-06T17:41:27.267Z,3.80
2023-02-06T17:43:54.012Z,3.70
2023-02-06T17:46:20.983Z,3.70
2023-02-06T17:48:47.808Z,3.70
2023-02-06T17:51:14.686Z,3.60
2023-02-06T17:53:41.390Z,3.50
2023-02-06T17:56:14.345Z,3.40
2023-02-06T17:58:42.121Z,3.40
2023-02-06T18:01:14.235Z,3.30
2023-02-06T18:03:41.630Z,3.20
2023-02-06T18:06:09.094Z,3.20
2023-02-06T18:08:35.989Z,3.10
2023-02-06T18:11:22.995Z,3.10
2023-02-06T18:13:51.040Z,3.10
2023-02-06T18:16:20.346Z,3.00
2023-02-06T18:18:47.834Z,2.90
2023-02-06T18:21:15.802Z,2.90
2023-02-06T18:23:43.314Z,2.90
2023-02-06T18:26:10.580Z,2.80
2023-02-06T18:28:39.871Z,2.80
2023-02-06T18:31:29.849Z,2.80
2023-02-06T18:33:57.502Z,2.70
2023-02-06T18:36:25.094Z,2.70
2023-02-06T18:38:52.879Z,2.70
2023-02-06T18:41:38.451Z,2.60
2023-02-06T18:44:08.340Z,2.60
2023-02-06T18:46:35.758Z,2.50
2023-02-06T18:49:02.470Z,2.50
2023-02-06T18:51:31.047Z,2.50
2023-02-06T18:53:59.026Z,2.50
2023-02-06T18:56:26.283Z,2.40
2023-02-06T18:58:53.026Z,2.40
2023-02-06T19:01:23.392Z,2.40
2023-02-06T19:03:53.915Z,2.30
2023-02-06T19:06:29.939Z,2.30
2023-02-06T19:08:57.504Z,2.30
2023-02-06T19:11:24.874Z,2.30
2023-02-06T19:13:51.689Z,2.30
2023-02-06T19:16:20.215Z,2.40
2023-02-06T19:18:48.698Z,2.40
2023-02-06T19:21:18.183Z,2.40
2023-02-06T19:23:46.892Z,2.40
2023-02-06T19:26:15.670Z,2.40
2023-02-06T19:28:43.608Z,2.40
2023-02-06T19:31:12.331Z,2.40
2023-02-06T19:33:41.087Z,2.40
2023-02-06T19:36:08.875Z,2.40
2023-02-06T19:38:36.073Z,2.40
2023-02-06T19:41:24.010Z,2.40
2023-02-06T19:43:51.980Z,2.40
2023-02-06T19:46:23.355Z,2.30
2023-02-06T19:48:51.381Z,2.30
2023-02-06T19:51:27.201Z,2.30
2023-02-06T19:53:55.641Z,2.30
2023-02-06T19:56:34.431Z,2.20
2023-02-06T19:59:04.285Z,2.30
2023-02-06T20:01:31.804Z,2.20
2023-02-06T20:04:00.811Z,2.20
2023-02-06T20:06:29.399Z,2.20
2023-02-06T20:08:56.976Z,2.30
2023-02-06T20:11:23.696Z,2.30
2023-02-06T20:13:55.465Z,2.30
2023-02-06T20:16:28.113Z,2.30
2023-02-06T20:18:55.717Z,2.20
2023-02-06T20:21:27.952Z,2.30
2023-02-06T20:24:01.295Z,2.30
2023-02-06T20:26:31.240Z,2.30
2023-02-06T20:28:58.037Z,2.30
2023-02-06T20:31:25.361Z,2.30
2023-02-06T20:33:52.367Z,2.20
2023-02-06T20:36:23.369Z,2.20
2023-02-06T20:38:52.639Z,2.10
2023-02-06T20:41:20.579Z,2.20
2023-02-06T20:43:48.151Z,2.10
2023-02-06T20:46:17.200Z,2.00
2023-02-06T20:48:48.253Z,1.90
2023-02-06T20:51:15.078Z,1.80
2023-02-06T20:53:41.712Z,1.70
2023-02-06T20:56:12.000Z,1.70
2023-02-06T20:58:39.166Z,1.60
2023-02-06T21:01:20.277Z,1.60
2023-02-06T21:03:47.431Z,1.60
2023-02-06T21:06:14.764Z,1.50
2023-02-06T21:08:42.619Z,1.40
2023-02-06T21:11:09.623Z,1.40
2023-02-06T21:13:36.498Z,1.30
2023-02-06T21:16:03.524Z,1.30
2023-02-06T21:18:32.006Z,1.30
2023-02-06T21:21:07.267Z,1.40
2023-02-06T21:23:34.219Z,1.40
2023-02-06T21:26:00.987Z,1.50
2023-02-06T21:28:27.651Z,1.60
2023-02-06T21:31:02.550Z,1.70
2023-02-06T21:33:29.668Z,1.70
2023-02-06T21:35:56.598Z,1.70
2023-02-06T21:38:24.621Z,1.70
2023-02-06T21:40:51.393Z,1.80
2023-02-06T21:43:18.210Z,1.90
2023-02-06T21:45:47.543Z,2.00
2023-02-06T21:48:14.315Z,2.00
2023-02-06T21:50:41.624Z,2.10
2023-02-06T21:53:09.623Z,2.10
2023-02-06T21:55:42.122Z,2.20
2023-02-06T21:58:10.028Z,2.20
2023-02-06T22:00:37.086Z,2.10
2023-02-06T22:03:04.318Z,2.10
2023-02-06T22:05:31.044Z,2.10
2023-02-06T22:07:59.042Z,2.00
2023-02-06T22:10:25.787Z,2.00
2023-02-06T22:12:52.581Z,2.10
2023-02-06T22:15:19.347Z,2.00
2023-02-06T22:17:46.009Z,2.00
2023-02-06T22:20:16.098Z,1.90
2023-02-06T22:22:43.063Z,1.90
2023-02-06T22:25:11.863Z,1.90
2023-02-06T22:27:39.265Z,1.80
2023-02-06T22:30:11.399Z,1.80
2023-02-06T22:32:39.847Z,1.70
2023-02-06T22:35:07.186Z,1.60
2023-02-06T22:37:34.503Z,1.60
2023-02-06T22:40:01.219Z,1.60
2023-02-06T22:42:28.284Z,1.50
2023-02-06T22:44:54.957Z,1.50
2023-02-06T22:47:21.632Z,1.50
2023-02-06T22:49:52.219Z,1.50
2023-02-06T22:52:37.660Z,1.40
2023-02-06T22:55:05.725Z,1.40
2023-02-06T22:57:35.127Z,1.30
2023-02-06T23:00:02.222Z,1.30
2023-02-06T23:02:28.927Z,1.20
2023-02-06T23:04:55.613Z,1.20
2023-02-06T23:07:22.251Z,1.20
2023-02-06T23:09:48.919Z,1.10
2023-02-06T23:12:16.874Z,1.10
2023-02-06T23:14:44.192Z,1.00
2023-02-06T23:17:11.591Z,1.00
2023-02-06T23:19:39.791Z,0.90
2023-02-06T23:22:06.873Z,0.90
2023-02-06T23:24:34.302Z,0.90
2023-02-06T23:27:01.239Z,0.90
2023-02-06T23:29:28.586Z,0.90
2023-02-06T23:31:55.735Z,1.00
2023-02-06T23:34:24.476Z,1.00
2023-02-06T23:36:52.059Z,1.10
2023-02-06T23:39:19.351Z,1.10
2023-02-06T23:41:46.345Z,1.20
2023-02-06T23:44:13.329Z,1.20
2023-02-06T23:46:40.716Z,1.10
2023-02-06T23:49:08.678Z,1.10
2023-02-06T23:51:36.675Z,1.10
2023-02-06T23:54:05.650Z,1.10
2023-02-06T23:56:32.788Z,1.10
2023-02-06T23:59:01.862Z,1.00
